Estación meteorológica de Montseny - Vallcàrquera (Vallès Oriental, Parc Natural del Montseny)

Consulta los datos en tiempo real de la estación meteorológica de Montseny - Vallcàrquera





Hora UTC 08:20
Temperatura 25.6 ºC
Humedad 57.8 %
Pluja 0.0 mm
Velocidad viento 1.1 km/h
Dirección viento SSE
Radiación solar 500.2 W/m²

Datos diarios 2026-09-02



Hora UTC (invierno +1h; verano +2h)
Temperatura (ºC) Humedad (%) Velocidad viento (km/h) Precipitación (mm) Radiación solar (W/m²)
Hora UTC Aire Humedad Vel. Dir. Vel. Max Dir. Intent. máx 5 min. Rad. Sol.
00:05 18.8 86.0 3.5 ENE 3.5 ENE 0.0 0.0
00:10 18.9 85.8 1.9 NE 4.2 ENE 0.0 0.0
00:15 18.9 86.0 2.6 NE 4.6 E 0.0 0.0
00:20 19.0 85.5 2.8 NE 5.3 NE 0.0 0.0
00:25 19.1 85.2 2.3 NE 3.9 ENE 0.0 0.0
00:30 19.0 85.6 1.5 NE 3.2 N 0.0 0.0
00:35 18.9 86.0 1.2 N 3.2 N 0.0 0.0
00:40 18.8 87.1 1.2 ENE 2.5 ENE 0.0 0.0
00:45 18.8 87.4 2.4 ENE 4.2 NE 0.0 0.0
00:50 18.9 86.6 2.0 NE 3.5 NNE 0.0 0.0
00:55 18.9 87.0 1.7 N 3.5 NNE 0.0 0.0
01:00 18.8 87.7 0.2 N 1.8 N 0.0 0.0
01:05 18.7 88.2 1.3 NNE 2.5 NE 0.0 0.0
01:10 18.8 87.9 1.2 NNE 2.1 NE 0.0 0.0
01:15 18.6 88.3 0.8 NE 2.5 ENE 0.0 0.0
01:20 18.6 89.3 0.7 NNE 2.5 NNE 0.0 0.0
01:25 18.6 88.8 0.9 N 2.1 N 0.0 0.0
01:30 18.7 89.2 0.9 N 2.5 N 0.0 0.0
01:35 18.6 89.3 0.5 N 1.8 NNW 0.0 0.0
01:40 18.6 89.4 1.0 NNW 2.1 NNW 0.0 0.0
01:45 18.6 89.4 1.0 NNW 2.1 N 0.0 0.0
01:50 18.5 89.5 0.4 NNW 2.1 NNW 0.0 0.0
01:55 18.3 90.1 0.8 N 2.5 N 0.0 0.0
02:00 18.3 90.6 1.1 NNW 2.5 N 0.0 0.0
02:05 18.1 90.2 1.2 NE 2.5 ENE 0.0 0.0
02:10 18.1 90.9 1.8 N 2.8 N 0.0 0.0
02:15 18.1 90.4 1.0 NNE 3.5 ENE 0.0 0.0
02:20 18.0 90.8 2.0 N 2.8 N 0.0 0.0
02:25 18.1 90.7 1.0 NNW 2.1 NNW 0.0 0.0
02:30 17.9 90.7 1.0 NNE 2.1 ENE 0.0 0.0
02:35 18.0 90.9 0.9 NNE 2.5 N 0.0 0.0
02:40 17.9 90.5 1.9 NNE 3.2 NNW 0.0 0.0
02:45 17.9 91.2 1.6 NNW 2.5 NNW 0.0 0.0
02:50 17.8 90.1 0.2 S 1.4 SSW 0.0 0.0
02:55 17.6 91.4 1.7 ENE 3.2 ENE 0.0 0.0
03:00 17.6 92.1 1.7 NE 3.2 ENE 0.0 0.0
03:05 17.7 91.6 0.7 NE 2.8 NE 0.0 0.0
03:10 17.6 91.5 1.2 NE 2.8 ENE 0.0 0.0
03:15 17.6 91.7 0.7 NNW 1.8 NNW 0.0 0.0
03:20 17.6 92.1 0.5 NNE 1.8 NNE 0.0 0.0
03:25 17.7 91.7 2.0 NE 3.5 NE 0.0 0.0
03:30 17.7 90.9 0.9 NNE 2.8 N 0.0 0.0
03:35 17.6 90.8 2.6 ENE 4.9 ENE 0.0 0.0
03:40 17.5 91.5 0.5 N 1.8 ENE 0.0 0.0
03:45 17.5 91.5 0.8 N 2.1 N 0.0 0.0
03:50 17.5 91.7 1.8 NE 3.2 NE 0.0 0.0
03:55 17.5 91.1 2.2 NE 4.2 ENE 0.0 0.0
04:00 17.5 91.1 1.5 N 2.5 N 0.0 0.0
04:05 17.4 90.9 1.8 NE 3.2 E 0.0 0.0
04:10 17.3 91.5 1.8 NE 3.5 ENE 0.0 0.0
04:15 17.3 91.5 0.8 N 2.1 N 0.0 0.0
04:20 17.1 91.6 2.7 ENE 4.9 ENE 0.0 0.0
04:25 17.1 92.0 0.9 NNE 4.2 NNE 0.0 0.0
04:30 17.1 91.6 2.9 ENE 6.7 ENE 0.0 0.0
04:35 17.2 91.2 1.7 NE 4.6 ENE 0.0 0.0
04:40 17.1 90.7 0.4 NE 1.8 NNE 0.0 0.0
04:45 17.1 91.5 1.1 NNE 2.5 N 0.0 0.0
04:50 17.0 91.5 1.2 NNE 2.5 NE 0.0 0.0
04:55 17.0 91.7 2.6 NE 4.6 ENE 0.0 0.0
05:00 17.0 91.4 0.7 NE 2.1 NE 0.0 0.0
05:05 17.0 91.3 1.5 ENE 4.2 ENE 0.0 0.0
05:10 16.8 91.8 1.3 NE 3.9 ENE 0.0 0.0
05:15 16.9 91.6 1.7 NE 3.9 ENE 0.0 0.4
05:20 16.8 91.5 0.4 NNE 1.8 N 0.0 1.5
05:25 16.7 91.8 1.1 NE 3.5 NE 0.0 3.3
05:30 16.7 91.9 0.2 NE 2.1 ENE 0.0 5.9
05:35 16.7 92.1 0.8 N 2.1 N 0.0 8.9
05:40 16.7 92.1 2.1 NE 3.9 ENE 0.0 11.7
05:45 16.7 91.9 2.4 ENE 4.2 ENE 0.0 14.4
05:50 16.7 92.4 1.2 NE 2.8 NE 0.0 16.7
05:55 16.7 92.1 3.0 ENE 4.6 ENE 0.0 19.2
06:00 16.7 91.8 2.0 NE 3.5 NE 0.0 21.6
06:05 16.7 91.8 0.5 NNE 2.1 ENE 0.0 24.4
06:10 16.8 91.9 0.5 NNE 1.4 NE 0.0 26.8
06:15 16.9 91.8 1.8 NE 3.2 ENE 0.0 29.6
06:20 16.9 91.5 2.8 ENE 4.6 ENE 0.0 32.0
06:25 16.9 91.6 0.6 NNE 2.1 NE 0.0 34.7
06:30 16.9 91.2 2.9 ENE 6.0 E 0.0 55.6
06:35 17.4 89.0 2.8 ENE 5.3 ENE 0.0 166.9
06:40 18.2 85.3 2.4 E 4.6 ENE 0.0 180.8
06:45 18.4 82.1 3.7 ENE 5.3 ENE 0.0 194.2
06:50 18.7 80.9 3.9 ENE 6.0 ENE 0.0 210.4
06:55 19.5 78.5 2.4 E 4.6 ENE 0.0 228.8
07:00 20.0 76.2 4.7 E 7.4 E 0.0 234.5
07:05 19.7 77.2 2.4 E 4.9 ENE 0.0 265.4
07:10 20.8 74.6 1.2 ESE 3.9 E 0.0 282.4
07:15 21.6 70.6 0.8 E 2.5 ESE 0.0 298.3
07:20 22.2 68.3 1.7 E 3.9 ESE 0.0 314.3
07:25 22.2 68.5 2.0 E 3.5 ENE 0.0 331.1
07:30 22.0 69.2 3.2 E 5.3 E 0.0 348.2
07:35 22.2 68.9 2.2 E 6.0 ENE 0.0 364.2
07:40 22.9 66.8 1.6 E 4.2 ENE 0.0 383.0
07:45 23.0 67.2 2.6 SE 5.6 ENE 0.0 397.5
07:50 23.3 66.0 3.2 E 6.4 ENE 0.0 413.5
07:55 23.2 66.1 2.5 ENE 5.3 ENE 0.0 428.0
08:00 23.5 65.0 2.2 E 4.9 ESE 0.0 443.5
08:05 24.0 63.5 1.7 ESE 4.6 ESE 0.0 458.3
08:10 24.7 61.9 1.1 SSE 3.5 SSE 0.0 473.8
08:15 24.9 60.7 1.5 S 4.9 SE 0.0 486.8
08:20 25.6 57.8 1.1 SSE 4.6 SW 0.0 500.2
Máxima 25.6 92.4 4.7 E 7.4 E 0.0 500.2
Mínima 16.7 57.8
Total 0.0